Time;durP1;ratioP1;P1;durP2;ratioP2;P2;SDS_P1;SDS_P2;PMS_P1;PMS_P2;Temp;Humidity;BMP_temperature;BMP_pressure;BME280_temperature;BME280_humidity;BME280_pressure;Samples;Min_cycle;Max_cycle;Signal;HPM_P1;HPM_P2
2022/11/07 00:01:46;;;;;;;11.77;7.27;;;;;;;;;;5049754;28;20206;-78
2022/11/07 00:04:12;;;;;;;15.77;8.33;;;;;;;;;;5050410;28;20208;-78
2022/11/07 00:06:39;;;;;;;10.17;8.10;;;;;;;;;;5050371;28;20201;-78
2022/11/07 00:09:06;;;;;;;13.63;8.40;;;;;;;;;;5050410;28;20221;-78
2022/11/07 00:11:34;;;;;;;11.40;8.17;;;;;;;;;;5049998;28;20197;-78
2022/11/07 00:14:01;;;;;;;11.10;7.87;;;;;;;;;;5050070;28;20230;-78
2022/11/07 00:16:28;;;;;;;11.17;7.90;;;;;;;;;;5050216;28;20208;-78
2022/11/07 00:18:55;;;;;;;22.80;8.93;;;;;;;;;;5049834;28;20198;-78
2022/11/07 00:21:22;;;;;;;12.57;9.07;;;;;;;;;;5035950;28;20826;-78
2022/11/07 00:23:48;;;;;;;10.93;8.97;;;;;;;;;;5050571;28;20202;-78
2022/11/07 00:26:15;;;;;;;17.00;8.23;;;;;;;;;;5049777;28;20209;-78
2022/11/07 00:28:44;;;;;;;10.47;8.80;;;;;;;;;;5050625;28;20260;-78
2022/11/07 00:31:12;;;;;;;11.60;8.57;;;;;;;;;;5049895;28;20220;-78
2022/11/07 00:33:39;;;;;;;11.60;7.30;;;;;;;;;;5049586;28;20229;-77
2022/11/07 00:36:07;;;;;;;13.63;7.80;;;;;;;;;;5049492;28;20201;-78
2022/11/07 00:38:33;;;;;;;12.43;7.67;;;;;;;;;;5050274;28;20259;-77
2022/11/07 00:41:02;;;;;;;11.13;8.80;;;;;;;;;;5050142;28;20213;-78
2022/11/07 00:43:29;;;;;;;8.87;7.80;;;;;;;;;;5036258;28;20213;-78
2022/11/07 00:45:57;;;;;;;11.30;9.03;;;;;;;;;;5048959;28;20201;-77
2022/11/07 00:48:24;;;;;;;11.77;8.67;;;;;;;;;;5044238;28;20604;-78
2022/11/07 00:50:51;;;;;;;15.40;8.47;;;;;;;;;;5050061;28;20201;-78
2022/11/07 00:53:18;;;;;;;9.97;8.23;;;;;;;;;;5051207;28;20238;-77
2022/11/07 00:55:45;;;;;;;12.70;9.67;;;;;;;;;;5053809;28;20198;-79
2022/11/07 00:58:12;;;;;;;14.57;9.33;;;;;;;;;;5053696;28;20202;-77
2022/11/07 01:00:38;;;;;;;14.33;9.50;;;;;;;;;;5053807;28;20251;-78
2022/11/07 01:05:57;;;;;;;12.77;8.70;;;;;;;;;;5051481;28;20266;-78
2022/11/07 01:08:25;;;;;;;12.47;8.97;;;;;;;;;;5053425;28;20202;-78
2022/11/07 01:10:51;;;;;;;12.63;8.83;;;;;;;;;;5053172;28;20255;-78
2022/11/07 01:13:18;;;;;;;11.83;9.57;;;;;;;;;;5053366;28;20225;-78
2022/11/07 01:15:45;;;;;;;12.47;8.83;;;;;;;;;;5053149;28;20212;-78
2022/11/07 01:18:13;;;;;;;14.23;9.27;;;;;;;;;;5053578;28;20593;-78
2022/11/07 01:20:40;;;;;;;12.43;8.70;;;;;;;;;;5052919;28;20205;-78
2022/11/07 01:23:07;;;;;;;17.50;9.03;;;;;;;;;;5053279;28;20206;-78
2022/11/07 01:25:36;;;;;;;10.50;8.87;;;;;;;;;;5052875;28;20209;-78
2022/11/07 01:28:03;;;;;;;15.50;9.70;;;;;;;;;;5052655;28;20292;-78
2022/11/07 01:30:30;;;;;;;12.87;9.67;;;;;;;;;;5052800;28;20665;-78
2022/11/07 01:32:57;;;;;;;16.67;10.10;;;;;;;;;;5052462;28;20194;-78
2022/11/07 01:35:25;;;;;;;18.73;9.43;;;;;;;;;;5052328;28;20755;-78
2022/11/07 01:37:52;;;;;;;13.80;9.53;;;;;;;;;;5052192;28;20213;-78
2022/11/07 01:40:19;;;;;;;15.47;10.57;;;;;;;;;;5046900;28;20202;-78
2022/11/07 01:42:45;;;;;;;15.37;10.13;;;;;;;;;;5052379;28;20206;-78
2022/11/07 01:45:19;;;;;;;15.97;10.63;;;;;;;;;;5052468;28;20209;-78
2022/11/07 01:47:46;;;;;;;15.10;9.77;;;;;;;;;;5052935;28;20643;-78
2022/11/07 01:50:13;;;;;;;16.77;9.27;;;;;;;;;;5052096;28;20754;-78
2022/11/07 01:52:43;;;;;;;10.47;9.20;;;;;;;;;;5052739;28;20236;-78
2022/11/07 01:55:11;;;;;;;14.10;10.03;;;;;;;;;;5051860;28;20668;-78
2022/11/07 01:57:40;;;;;;;10.17;9.17;;;;;;;;;;5053033;28;20202;-78
2022/11/07 02:00:09;;;;;;;14.90;10.13;;;;;;;;;;5052359;28;20205;-78
2022/11/07 02:02:37;;;;;;;13.70;9.20;;;;;;;;;;5052720;28;20209;-78
2022/11/07 02:05:05;;;;;;;12.07;8.93;;;;;;;;;;5052049;28;20591;-78
2022/11/07 02:07:32;;;;;;;17.93;10.83;;;;;;;;;;5051535;28;20202;-78
2022/11/07 02:10:01;;;;;;;18.23;10.53;;;;;;;;;;5052346;28;20272;-78
2022/11/07 02:12:29;;;;;;;12.37;9.10;;;;;;;;;;5052370;28;21825;-78
2022/11/07 02:14:56;;;;;;;14.13;9.33;;;;;;;;;;5051755;28;20229;-78
2022/11/07 02:17:23;;;;;;;14.13;9.87;;;;;;;;;;5051975;28;20209;-78
2022/11/07 02:19:51;;;;;;;14.00;9.37;;;;;;;;;;5051969;28;20202;-78
2022/11/07 02:22:25;;;;;;;13.80;9.73;;;;;;;;;;5051817;28;20229;-78
2022/11/07 02:24:55;;;;;;;10.30;9.07;;;;;;;;;;5038702;28;20209;-78
2022/11/07 02:27:25;;;;;;;14.50;11.00;;;;;;;;;;5051857;28;20649;-78
2022/11/07 02:29:56;;;;;;;20.30;11.33;;;;;;;;;;5051932;28;20210;-78
2022/11/07 02:32:22;;;;;;;15.87;10.53;;;;;;;;;;5051835;28;20198;-78
2022/11/07 02:34:55;;;;;;;12.60;9.90;;;;;;;;;;5051356;28;20241;-78
2022/11/07 02:37:26;;;;;;;15.03;10.30;;;;;;;;;;5051710;28;20213;-80
2022/11/07 02:39:54;;;;;;;16.40;10.37;;;;;;;;;;5051636;28;20202;-79
2022/11/07 02:42:21;;;;;;;17.80;11.03;;;;;;;;;;5051766;28;20703;-79
2022/11/07 02:44:48;;;;;;;15.43;10.20;;;;;;;;;;5051547;28;20213;-79
2022/11/07 02:47:15;;;;;;;23.77;11.00;;;;;;;;;;5051021;28;20197;-78
2022/11/07 02:49:42;;;;;;;12.07;9.93;;;;;;;;;;5051728;28;20612;-78
2022/11/07 02:52:08;;;;;;;18.50;10.60;;;;;;;;;;5051317;28;20212;-78
2022/11/07 02:54:35;;;;;;;14.47;10.97;;;;;;;;;;5051243;28;20256;-78
2022/11/07 02:57:04;;;;;;;12.83;9.80;;;;;;;;;;5051296;28;20252;-79
2022/11/07 02:59:30;;;;;;;13.63;9.10;;;;;;;;;;5051071;28;20256;-79
2022/11/07 03:01:57;;;;;;;16.30;10.30;;;;;;;;;;5051024;28;20708;-79
2022/11/07 03:04:24;;;;;;;16.43;10.97;;;;;;;;;;5051099;28;20206;-79
2022/11/07 03:06:51;;;;;;;16.00;10.97;;;;;;;;;;5051238;28;20202;-78
2022/11/07 03:09:18;;;;;;;17.00;10.53;;;;;;;;;;5051040;28;20285;-79
2022/11/07 03:11:44;;;;;;;13.03;11.13;;;;;;;;;;5051360;28;20210;-79
2022/11/07 03:14:13;;;;;;;13.20;11.33;;;;;;;;;;5050650;28;20228;-78
2022/11/07 03:16:39;;;;;;;15.83;10.63;;;;;;;;;;5050210;28;20654;-79
2022/11/07 03:19:06;;;;;;;16.57;10.37;;;;;;;;;;5050588;28;20209;-79
2022/11/07 03:21:33;;;;;;;13.67;11.20;;;;;;;;;;5050791;28;20212;-79
2022/11/07 03:24:00;;;;;;;17.23;11.50;;;;;;;;;;5051089;28;20594;-79
2022/11/07 03:26:26;;;;;;;13.97;11.30;;;;;;;;;;5050855;28;20289;-79
2022/11/07 03:28:53;;;;;;;69.60;37.83;;;;;;;;;;5050702;28;20636;-79
2022/11/07 03:31:21;;;;;;;19.07;14.00;;;;;;;;;;5050610;28;20675;-78
2022/11/07 03:33:48;;;;;;;18.23;11.37;;;;;;;;;;5050383;28;20726;-79
2022/11/07 03:36:15;;;;;;;16.40;12.37;;;;;;;;;;5050439;28;20210;-78
2022/11/07 03:38:41;;;;;;;12.20;10.83;;;;;;;;;;5051204;28;20254;-79
2022/11/07 03:41:08;;;;;;;14.83;10.70;;;;;;;;;;5049983;28;20202;-79
2022/11/07 03:43:35;;;;;;;17.07;10.30;;;;;;;;;;5047879;28;20194;-79
2022/11/07 03:46:02;;;;;;;14.97;11.20;;;;;;;;;;5050600;28;20588;-79
2022/11/07 03:48:30;;;;;;;14.80;11.00;;;;;;;;;;5050453;28;20248;-79
2022/11/07 03:50:56;;;;;;;15.80;9.87;;;;;;;;;;5050036;28;20577;-79
2022/11/07 03:53:23;;;;;;;14.73;11.00;;;;;;;;;;5050387;28;20716;-79
2022/11/07 03:55:50;;;;;;;13.63;8.90;;;;;;;;;;5036521;28;20233;-78
2022/11/07 03:58:17;;;;;;;11.27;9.87;;;;;;;;;;5050558;28;20210;-79
2022/11/07 04:00:43;;;;;;;10.53;8.57;;;;;;;;;;5050003;28;20205;-78
2022/11/07 04:03:10;;;;;;;12.73;10.67;;;;;;;;;;5050536;28;20791;-78
2022/11/07 04:05:38;;;;;;;11.70;10.43;;;;;;;;;;5050411;28;20267;-78
2022/11/07 04:08:05;;;;;;;14.03;10.90;;;;;;;;;;5050592;28;20209;-79
2022/11/07 04:10:32;;;;;;;14.97;10.30;;;;;;;;;;5050017;28;20202;-78
2022/11/07 04:18:28;;;;;;;13.63;10.87;;;;;;;;;;5050139;28;20204;-79
2022/11/07 04:20:56;;;;;;;12.50;9.50;;;;;;;;;;5050010;28;20198;-79
2022/11/07 04:23:23;;;;;;;14.40;10.23;;;;;;;;;;5049967;28;20206;-78
2022/11/07 04:28:34;;;;;;;52.50;28.17;;;;;;;;;;5053830;28;20219;-78
2022/11/07 04:31:01;;;;;;;43.73;21.90;;;;;;;;;;5054241;28;20202;-78
2022/11/07 04:33:27;;;;;;;40.07;25.07;;;;;;;;;;5053637;28;20206;-78
2022/11/07 04:35:56;;;;;;;18.50;13.83;;;;;;;;;;5053700;28;20238;-79
2022/11/07 04:38:22;;;;;;;17.10;10.90;;;;;;;;;;5052405;28;20202;-79
2022/11/07 04:40:53;;;;;;;22.13;10.80;;;;;;;;;;5054021;28;20202;-79
2022/11/07 04:43:20;;;;;;;23.27;12.23;;;;;;;;;;5051362;28;20209;-77
2022/11/07 04:45:46;;;;;;;13.93;10.63;;;;;;;;;;5053342;28;20209;-77
2022/11/07 04:48:13;;;;;;;16.73;10.47;;;;;;;;;;5053512;28;20204;-77
2022/11/07 04:50:40;;;;;;;15.50;11.47;;;;;;;;;;5053580;28;20581;-77
2022/11/07 04:53:11;;;;;;;16.27;12.93;;;;;;;;;;5053134;28;20202;-77
2022/11/07 04:55:38;;;;;;;14.70;10.93;;;;;;;;;;5053326;28;20228;-77
2022/11/07 04:58:05;;;;;;;13.30;10.97;;;;;;;;;;5053720;28;20203;-77
2022/11/07 05:00:31;;;;;;;12.40;10.70;;;;;;;;;;5053192;28;20616;-77
2022/11/07 05:02:58;;;;;;;18.27;10.73;;;;;;;;;;5053202;28;20206;-77
2022/11/07 05:05:25;;;;;;;15.73;9.50;;;;;;;;;;5052454;28;20262;-78
2022/11/07 05:07:52;;;;;;;18.77;11.87;;;;;;;;;;5053825;28;20756;-78
2022/11/07 05:10:22;;;;;;;13.43;9.83;;;;;;;;;;5051975;28;20221;-78
2022/11/07 05:12:49;;;;;;;15.50;9.73;;;;;;;;;;5053284;28;20205;-79
2022/11/07 05:15:16;;;;;;;12.93;9.63;;;;;;;;;;5052613;28;20676;-78
2022/11/07 05:17:43;;;;;;;12.63;10.10;;;;;;;;;;5052784;28;20213;-78
2022/11/07 05:20:18;;;;;;;15.97;9.67;;;;;;;;;;5052731;28;20696;-78
2022/11/07 05:25:33;;;;;;;11.70;10.13;;;;;;;;;;5052272;28;20204;-78
2022/11/07 05:28:00;;;;;;;13.43;9.43;;;;;;;;;;5051897;28;20590;-78
2022/11/07 05:30:26;;;;;;;18.07;11.07;;;;;;;;;;5052982;28;20807;-78
2022/11/07 05:32:53;;;;;;;13.33;10.00;;;;;;;;;;5053065;28;20197;-78
2022/11/07 05:35:20;;;;;;;14.73;11.93;;;;;;;;;;5052597;28;20226;-77
2022/11/07 05:37:47;;;;;;;15.27;11.23;;;;;;;;;;5052726;28;20200;-77
2022/11/07 05:40:14;;;;;;;13.80;10.13;;;;;;;;;;5051027;28;20289;-78
2022/11/07 05:42:42;;;;;;;15.43;9.17;;;;;;;;;;5049968;28;20210;-78
2022/11/07 05:45:10;;;;;;;15.43;10.90;;;;;;;;;;5048716;28;20205;-77
2022/11/07 05:47:37;;;;;;;16.43;10.77;;;;;;;;;;5053123;28;20205;-77
2022/11/07 05:50:04;;;;;;;13.97;10.13;;;;;;;;;;5052050;28;20198;-78
2022/11/07 05:52:32;;;;;;;12.03;9.50;;;;;;;;;;5052544;28;20616;-78
2022/11/07 05:54:58;;;;;;;14.83;12.23;;;;;;;;;;5052301;28;20796;-79
2022/11/07 05:57:25;;;;;;;16.33;11.70;;;;;;;;;;5052686;28;20206;-78
2022/11/07 05:59:53;;;;;;;19.90;12.87;;;;;;;;;;5052211;28;20202;-78
2022/11/07 06:02:20;;;;;;;13.43;10.63;;;;;;;;;;5052381;28;20194;-77
2022/11/07 06:04:47;;;;;;;17.20;13.60;;;;;;;;;;5052366;28;20198;-78
2022/11/07 06:07:13;;;;;;;18.87;13.30;;;;;;;;;;5052414;28;20209;-78
2022/11/07 06:09:40;;;;;;;16.83;12.97;;;;;;;;;;5051601;28;20202;-78
2022/11/07 06:12:07;;;;;;;19.20;13.57;;;;;;;;;;5052331;28;20201;-78
2022/11/07 06:14:34;;;;;;;32.10;16.77;;;;;;;;;;5038340;28;20227;-78
2022/11/07 06:17:02;;;;;;;33.10;19.47;;;;;;;;;;5051845;28;20267;-78
2022/11/07 06:19:29;;;;;;;19.57;13.63;;;;;;;;;;5051945;28;20642;-77
2022/11/07 06:21:55;;;;;;;14.27;11.47;;;;;;;;;;5052030;28;20212;-78
2022/11/07 06:24:22;;;;;;;17.37;11.90;;;;;;;;;;5052063;28;20214;-77
2022/11/07 06:26:49;;;;;;;15.00;10.60;;;;;;;;;;5052428;28;20202;-78
2022/11/07 06:29:16;;;;;;;15.53;11.87;;;;;;;;;;5051657;28;20202;-78
2022/11/07 06:31:42;;;;;;;17.97;15.03;;;;;;;;;;5052141;28;20224;-78
2022/11/07 06:34:10;;;;;;;23.30;17.87;;;;;;;;;;5051862;28;20799;-78
2022/11/07 06:36:37;;;;;;;22.37;15.03;;;;;;;;;;5051503;28;20221;-78
2022/11/07 06:39:04;;;;;;;18.20;14.30;;;;;;;;;;5051761;28;20568;-78
2022/11/07 06:41:31;;;;;;;17.63;12.53;;;;;;;;;;5051815;28;20205;-77
2022/11/07 06:43:57;;;;;;;13.70;10.57;;;;;;;;;;5051743;28;20211;-77
2022/11/07 06:46:24;;;;;;;17.30;11.23;;;;;;;;;;5045037;28;20217;-77
2022/11/07 06:48:51;;;;;;;17.07;11.57;;;;;;;;;;5051411;28;20512;-77
2022/11/07 06:51:19;;;;;;;13.87;9.67;;;;;;;;;;5051160;28;20220;-78
2022/11/07 06:53:46;;;;;;;16.20;10.43;;;;;;;;;;5051608;28;20279;-78
2022/11/07 06:56:14;;;;;;;14.43;10.53;;;;;;;;;;5051203;28;20228;-78
2022/11/07 06:58:41;;;;;;;16.13;12.03;;;;;;;;;;5051335;28;20641;-78
2022/11/07 07:01:12;;;;;;;13.77;9.47;;;;;;;;;;5051259;28;20221;-78
2022/11/07 07:03:39;;;;;;;15.63;10.57;;;;;;;;;;5050933;28;20289;-78
2022/11/07 07:06:07;;;;;;;15.83;11.53;;;;;;;;;;5051707;28;20283;-77
2022/11/07 07:08:35;;;;;;;17.70;13.73;;;;;;;;;;5051404;28;20211;-78
2022/11/07 07:11:03;;;;;;;17.83;11.60;;;;;;;;;;5051116;28;20209;-77
2022/11/07 07:13:30;;;;;;;16.87;12.97;;;;;;;;;;5051067;28;20206;-78
2022/11/07 07:15:57;;;;;;;14.03;11.07;;;;;;;;;;5051016;28;20226;-78
2022/11/07 07:18:25;;;;;;;17.40;11.30;;;;;;;;;;5050571;28;20213;-77
2022/11/07 07:20:52;;;;;;;18.17;12.00;;;;;;;;;;5050541;28;20917;-77
2022/11/07 07:23:20;;;;;;;14.30;11.17;;;;;;;;;;5050964;28;20202;-78
2022/11/07 07:25:48;;;;;;;22.17;11.17;;;;;;;;;;5050849;28;20633;-78
2022/11/07 07:28:15;;;;;;;13.43;10.33;;;;;;;;;;5050864;28;20202;-78
2022/11/07 07:30:42;;;;;;;16.57;11.67;;;;;;;;;;5050229;28;20260;-78
2022/11/07 07:33:08;;;;;;;13.93;11.20;;;;;;;;;;5050827;28;20198;-77
2022/11/07 07:35:35;;;;;;;17.20;10.97;;;;;;;;;;5050725;28;20723;-77
2022/11/07 07:38:02;;;;;;;15.30;10.10;;;;;;;;;;5050793;28;20209;-77
2022/11/07 07:40:28;;;;;;;10.63;8.27;;;;;;;;;;5050187;28;20202;-77
2022/11/07 07:42:57;;;;;;;13.87;8.57;;;;;;;;;;5050803;28;20202;-77
2022/11/07 07:45:23;;;;;;;9.63;7.87;;;;;;;;;;5050229;28;20255;-78
2022/11/07 07:47:51;;;;;;;8.97;7.23;;;;;;;;;;5050791;28;20198;-77
2022/11/07 07:50:18;;;;;;;11.97;6.83;;;;;;;;;;5050004;28;20675;-77
2022/11/07 07:52:45;;;;;;;12.27;6.90;;;;;;;;;;5050871;28;20212;-77
2022/11/07 07:55:12;;;;;;;13.60;7.40;;;;;;;;;;5050023;28;20245;-77
2022/11/07 07:57:40;;;;;;;10.77;6.90;;;;;;;;;;5050421;28;20201;-77
2022/11/07 08:00:10;;;;;;;9.03;6.00;;;;;;;;;;5049923;28;20237;-78
2022/11/07 08:02:37;;;;;;;10.63;6.10;;;;;;;;;;5049830;28;20236;-78
2022/11/07 08:05:04;;;;;;;7.43;6.67;;;;;;;;;;5050299;28;20213;-77
2022/11/07 08:07:31;;;;;;;7.90;5.93;;;;;;;;;;5050423;28;20608;-77
2022/11/07 08:09:58;;;;;;;7.47;6.27;;;;;;;;;;5049812;28;20206;-78
2022/11/07 08:12:24;;;;;;;14.20;7.47;;;;;;;;;;5050184;28;20267;-78
2022/11/07 08:14:51;;;;;;;7.33;5.73;;;;;;;;;;5050557;28;20202;-77
2022/11/07 08:17:19;;;;;;;8.77;5.07;;;;;;;;;;5050338;28;20629;-77
2022/11/07 08:19:46;;;;;;;8.10;6.40;;;;;;;;;;5050168;28;20209;-78
2022/11/07 08:22:13;;;;;;;7.43;5.73;;;;;;;;;;5050356;28;20251;-77
2022/11/07 08:24:42;;;;;;;7.53;5.20;;;;;;;;;;5050100;28;20217;-77
2022/11/07 08:27:08;;;;;;;16.13;5.87;;;;;;;;;;5049793;28;20212;-78
2022/11/07 08:29:35;;;;;;;9.80;6.03;;;;;;;;;;5050271;28;20201;-77
2022/11/07 08:32:02;;;;;;;7.70;5.97;;;;;;;;;;5050364;28;20201;-77
2022/11/07 08:34:30;;;;;;;10.20;5.93;;;;;;;;;;5049736;28;20225;-77
2022/11/07 08:36:56;;;;;;;10.60;6.33;;;;;;;;;;5049926;28;20229;-77
2022/11/07 08:39:23;;;;;;;6.70;4.93;;;;;;;;;;5049854;28;20202;-78
2022/11/07 08:41:50;;;;;;;14.50;5.27;;;;;;;;;;5050043;28;20202;-77
2022/11/07 08:44:17;;;;;;;11.43;6.10;;;;;;;;;;5049856;28;20262;-75
2022/11/07 08:46:43;;;;;;;8.07;6.00;;;;;;;;;;5049920;28;20280;-75
2022/11/07 08:49:10;;;;;;;9.30;6.20;;;;;;;;;;5049751;28;20207;-76
2022/11/07 08:51:38;;;;;;;9.27;6.77;;;;;;;;;;5050183;28;20206;-76
2022/11/07 08:54:05;;;;;;;10.20;6.00;;;;;;;;;;5049671;28;20224;-77
2022/11/07 08:56:33;;;;;;;14.90;6.60;;;;;;;;;;5049488;28;20238;-76
2022/11/07 08:59:00;;;;;;;9.23;7.20;;;;;;;;;;5049836;28;20209;-77
2022/11/07 09:01:27;;;;;;;10.43;7.07;;;;;;;;;;5049876;28;20216;-77
2022/11/07 09:03:53;;;;;;;13.03;8.17;;;;;;;;;;5049830;28;20214;-77
2022/11/07 09:06:20;;;;;;;11.43;7.73;;;;;;;;;;5049867;28;20615;-77
2022/11/07 09:08:48;;;;;;;14.93;8.23;;;;;;;;;;5049188;28;20282;-77
2022/11/07 09:11:17;;;;;;;10.07;8.03;;;;;;;;;;5049616;28;20201;-77
2022/11/07 09:13:45;;;;;;;12.13;8.07;;;;;;;;;;5050376;28;20594;-77
2022/11/07 09:16:15;;;;;;;13.53;9.50;;;;;;;;;;5053236;28;20225;-77
2022/11/07 09:18:42;;;;;;;15.07;9.63;;;;;;;;;;5053386;28;20209;-77
2022/11/07 09:21:09;;;;;;;10.17;7.87;;;;;;;;;;5053171;28;20202;-78
2022/11/07 09:23:36;;;;;;;10.13;8.37;;;;;;;;;;5052259;28;20263;-77
2022/11/07 09:26:04;;;;;;;12.23;8.63;;;;;;;;;;5046947;28;20219;-77
2022/11/07 09:28:31;;;;;;;11.90;8.23;;;;;;;;;;5053093;28;20206;-77
2022/11/07 09:30:59;;;;;;;9.93;8.13;;;;;;;;;;5053138;28;20206;-77
2022/11/07 09:33:26;;;;;;;10.70;7.37;;;;;;;;;;5053018;28;20268;-77
2022/11/07 09:35:53;;;;;;;10.87;8.67;;;;;;;;;;5052510;28;20226;-78
2022/11/07 09:38:20;;;;;;;10.03;8.30;;;;;;;;;;5052878;28;20205;-77
2022/11/07 09:40:51;;;;;;;11.73;8.73;;;;;;;;;;5052978;28;20206;-77
2022/11/07 09:43:31;;;;;;;10.67;8.73;;;;;;;;;;5052935;28;20208;-78
2022/11/07 09:46:03;;;;;;;10.80;9.10;;;;;;;;;;5052788;28;20214;-77
2022/11/07 09:48:37;;;;;;;11.03;8.20;;;;;;;;;;5052252;28;20206;-76
2022/11/07 09:51:04;;;;;;;13.50;9.73;;;;;;;;;;5052584;28;20684;-77
2022/11/07 09:53:36;;;;;;;12.40;8.73;;;;;;;;;;5052726;28;20229;-77
2022/11/07 09:56:05;;;;;;;13.23;8.97;;;;;;;;;;5052572;28;20234;-77
2022/11/07 09:58:34;;;;;;;13.37;8.43;;;;;;;;;;5052332;28;20280;-78
2022/11/07 10:01:05;;;;;;;12.20;9.33;;;;;;;;;;5052073;28;20201;-77
2022/11/07 10:03:32;;;;;;;11.77;8.63;;;;;;;;;;5052758;28;20288;-77
2022/11/07 10:06:04;;;;;;;11.50;9.10;;;;;;;;;;5052480;28;20212;-77
2022/11/07 10:08:37;;;;;;;17.97;9.37;;;;;;;;;;5052203;28;20731;-77
2022/11/07 10:11:08;;;;;;;12.07;8.40;;;;;;;;;;5052404;28;20206;-77
2022/11/07 10:13:49;;;;;;;13.70;8.90;;;;;;;;;;5052102;28;20756;-77
2022/11/07 10:16:20;;;;;;;12.70;7.83;;;;;;;;;;5051993;28;20229;-78
2022/11/07 10:18:58;;;;;;;10.57;8.93;;;;;;;;;;5052510;28;20639;-78
2022/11/07 10:21:30;;;;;;;11.97;7.53;;;;;;;;;;5038654;28;20650;-77
2022/11/07 10:24:09;;;;;;;11.17;9.00;;;;;;;;;;5052024;28;20761;-77
2022/11/07 10:26:36;;;;;;;11.40;8.43;;;;;;;;;;5051922;28;20259;-77
2022/11/07 10:29:12;;;;;;;9.60;8.60;;;;;;;;;;5052086;28;20208;-78
2022/11/07 10:31:41;;;;;;;11.20;8.40;;;;;;;;;;5051868;28;20746;-77
2022/11/07 10:34:13;;;;;;;9.13;7.50;;;;;;;;;;5051784;28;20629;-78
2022/11/07 10:36:40;;;;;;;9.00;8.10;;;;;;;;;;5052206;28;20221;-77
2022/11/07 10:39:13;;;;;;;12.47;8.97;;;;;;;;;;5052056;28;20260;-78
2022/11/07 10:41:41;;;;;;;9.73;8.63;;;;;;;;;;5051776;28;20267;-77
2022/11/07 10:44:14;;;;;;;11.73;8.30;;;;;;;;;;5051617;28;20202;-77
2022/11/07 10:46:42;;;;;;;10.53;8.13;;;;;;;;;;5051218;28;20214;-77
2022/11/07 10:49:20;;;;;;;16.30;10.23;;;;;;;;;;5051924;28;20220;-77
2022/11/07 10:51:47;;;;;;;17.13;11.87;;;;;;;;;;5051726;28;20213;-77
2022/11/07 10:54:21;;;;;;;14.73;10.00;;;;;;;;;;5051907;28;20229;-77
2022/11/07 10:56:50;;;;;;;15.90;8.27;;;;;;;;;;5051455;28;20284;-78
2022/11/07 10:59:25;;;;;;;13.27;9.60;;;;;;;;;;5051009;28;20198;-77
2022/11/07 11:01:53;;;;;;;14.63;7.77;;;;;;;;;;5051627;28;20308;-77
2022/11/07 11:04:21;;;;;;;11.77;8.70;;;;;;;;;;5050903;28;20198;-77
2022/11/07 11:06:57;;;;;;;10.47;7.67;;;;;;;;;;5051132;28;20202;-77
2022/11/07 11:09:28;;;;;;;9.63;7.83;;;;;;;;;;5051281;28;20232;-78
2022/11/07 11:11:55;;;;;;;11.17;6.83;;;;;;;;;;5050982;28;20235;-77
2022/11/07 11:14:23;;;;;;;14.57;9.00;;;;;;;;;;5051146;28;20198;-78
2022/11/07 11:16:53;;;;;;;7.30;6.47;;;;;;;;;;5050842;28;20235;-77
2022/11/07 11:19:23;;;;;;;8.60;6.40;;;;;;;;;;5050689;28;20205;-77
2022/11/07 11:21:51;;;;;;;9.57;6.60;;;;;;;;;;5051112;28;20267;-77
2022/11/07 11:24:26;;;;;;;9.97;6.20;;;;;;;;;;5050328;28;20210;-77
2022/11/07 11:26:53;;;;;;;13.53;6.47;;;;;;;;;;5050990;28;20646;-77
2022/11/07 11:29:28;;;;;;;12.60;6.40;;;;;;;;;;5050741;28;20209;-77
2022/11/07 11:31:57;;;;;;;11.97;6.77;;;;;;;;;;5050718;28;20201;-77
2022/11/07 11:34:29;;;;;;;12.40;6.10;;;;;;;;;;5050655;28;20209;-77
2022/11/07 11:37:01;;;;;;;8.77;6.80;;;;;;;;;;5049931;28;20229;-77
2022/11/07 11:39:33;;;;;;;8.00;5.57;;;;;;;;;;5050687;28;20715;-77
2022/11/07 11:42:00;;;;;;;8.90;5.77;;;;;;;;;;5051055;28;20229;-76
2022/11/07 11:44:35;;;;;;;10.43;6.47;;;;;;;;;;5050361;28;20202;-77
2022/11/07 11:47:08;;;;;;;8.30;6.17;;;;;;;;;;5050642;28;20201;-77
2022/11/07 11:49:38;;;;;;;12.57;5.80;;;;;;;;;;5050612;28;20267;-76
2022/11/07 11:52:08;;;;;;;8.70;6.63;;;;;;;;;;5050631;28;20209;-77
2022/11/07 11:54:35;;;;;;;10.37;7.37;;;;;;;;;;5050612;28;20287;-77
2022/11/07 11:57:07;;;;;;;7.27;6.13;;;;;;;;;;5050376;28;20730;-77
2022/11/07 11:59:47;;;;;;;7.50;5.90;;;;;;;;;;5049986;28;20588;-78
2022/11/07 12:03:02;;;;;;;7.23;5.30;;;;;;;;;;5050781;28;20213;-78
2022/11/07 12:06:04;;;;;;;10.67;5.93;;;;;;;;;;5049996;28;20221;-77
2022/11/07 12:08:39;;;;;;;7.43;5.47;;;;;;;;;;5050631;28;20205;-77
2022/11/07 12:11:13;;;;;;;8.10;5.77;;;;;;;;;;5050338;28;20197;-77
2022/11/07 12:13:44;;;;;;;6.83;5.77;;;;;;;;;;5050713;28;20210;-77
2022/11/07 12:16:22;;;;;;;9.57;6.57;;;;;;;;;;5049917;28;20202;-78
2022/11/07 12:18:55;;;;;;;9.53;5.67;;;;;;;;;;5050441;28;20288;-77
2022/11/07 12:21:31;;;;;;;8.77;6.17;;;;;;;;;;5050240;28;20194;-77
2022/11/07 12:24:06;;;;;;;8.13;5.43;;;;;;;;;;5050068;28;20331;-77
2022/11/07 12:26:36;;;;;;;11.87;6.33;;;;;;;;;;5050203;28;20205;-77
2022/11/07 12:29:12;;;;;;;10.53;6.73;;;;;;;;;;5049833;28;20585;-77
2022/11/07 12:31:50;;;;;;;7.83;6.20;;;;;;;;;;5049972;28;20259;-77
2022/11/07 12:34:28;;;;;;;8.73;6.33;;;;;;;;;;5049815;28;20209;-76
2022/11/07 12:37:12;;;;;;;9.80;6.37;;;;;;;;;;5050205;28;20225;-77
2022/11/07 12:39:47;;;;;;;10.67;7.27;;;;;;;;;;5049780;28;20212;-77
2022/11/07 12:42:25;;;;;;;8.23;5.40;;;;;;;;;;5049934;28;20587;-78
2022/11/07 12:45:00;;;;;;;11.00;5.83;;;;;;;;;;5049810;28;20679;-77
2022/11/07 12:47:42;;;;;;;10.23;5.77;;;;;;;;;;5050326;28;20655;-77
2022/11/07 12:50:21;;;;;;;9.20;5.40;;;;;;;;;;5053806;28;20205;-77
2022/11/07 12:53:00;;;;;;;10.03;5.70;;;;;;;;;;5053678;28;20212;-77
2022/11/07 12:55:31;;;;;;;8.33;6.20;;;;;;;;;;5053521;28;20588;-76
2022/11/07 12:57:59;;;;;;;7.70;5.80;;;;;;;;;;5053630;28;20222;-77
2022/11/07 13:00:26;;;;;;;8.80;6.07;;;;;;;;;;5053439;28;20336;-77
2022/11/07 13:03:04;;;;;;;8.93;5.63;;;;;;;;;;5053746;28;20209;-77
2022/11/07 13:05:41;;;;;;;7.17;5.47;;;;;;;;;;5053434;28;20212;-77
2022/11/07 13:08:13;;;;;;;10.03;6.13;;;;;;;;;;5053568;28;20206;-77
2022/11/07 13:10:49;;;;;;;7.57;5.17;;;;;;;;;;5052879;28;20198;-77
2022/11/07 13:13:20;;;;;;;7.07;6.07;;;;;;;;;;5053482;28;20212;-77
2022/11/07 13:15:47;;;;;;;6.43;5.53;;;;;;;;;;5053332;28;20204;-77
2022/11/07 13:18:22;;;;;;;9.73;5.60;;;;;;;;;;5053412;28;20316;-77
2022/11/07 13:20:59;;;;;;;10.80;6.83;;;;;;;;;;5052752;28;20197;-77
2022/11/07 13:23:27;;;;;;;14.10;5.53;;;;;;;;;;5053338;28;20754;-77
2022/11/07 13:25:59;;;;;;;7.27;5.90;;;;;;;;;;5053126;28;20285;-77
2022/11/07 13:28:29;;;;;;;11.03;6.57;;;;;;;;;;5053264;28;20248;-77
2022/11/07 13:30:58;;;;;;;9.07;6.73;;;;;;;;;;5053085;28;20198;-77
2022/11/07 13:33:28;;;;;;;10.90;5.40;;;;;;;;;;5052676;28;20198;-77
2022/11/07 13:35:56;;;;;;;8.97;6.10;;;;;;;;;;5053223;28;20233;-77
2022/11/07 13:38:24;;;;;;;8.50;5.30;;;;;;;;;;5039341;28;20303;-77
2022/11/07 13:40:52;;;;;;;14.93;7.60;;;;;;;;;;5052499;28;20221;-77
2022/11/07 13:43:22;;;;;;;7.73;5.40;;;;;;;;;;5052577;28;20197;-77
2022/11/07 13:45:50;;;;;;;11.53;6.00;;;;;;;;;;5052664;28;20296;-77
2022/11/07 13:48:21;;;;;;;8.87;5.47;;;;;;;;;;5052612;28;20635;-77
2022/11/07 13:50:56;;;;;;;8.90;6.33;;;;;;;;;;5053031;28;20213;-77
2022/11/07 13:53:29;;;;;;;8.70;5.90;;;;;;;;;;5052636;28;20225;-77
2022/11/07 13:56:03;;;;;;;8.90;5.63;;;;;;;;;;5052659;28;20205;-77
2022/11/07 13:58:31;;;;;;;7.67;5.50;;;;;;;;;;5052291;28;20222;-77
2022/11/07 14:01:03;;;;;;;7.27;5.07;;;;;;;;;;5051838;28;20263;-77
2022/11/07 14:03:30;;;;;;;8.90;5.40;;;;;;;;;;5052500;28;20209;-77
2022/11/07 14:05:58;;;;;;;12.70;6.13;;;;;;;;;;5052263;28;20205;-77
2022/11/07 14:08:28;;;;;;;7.13;5.40;;;;;;;;;;5052657;28;20206;-77
2022/11/07 14:10:55;;;;;;;10.07;5.53;;;;;;;;;;5051956;28;20204;-77
2022/11/07 14:13:25;;;;;;;8.97;6.00;;;;;;;;;;5052371;28;20210;-77
2022/11/07 14:15:54;;;;;;;11.23;6.73;;;;;;;;;;5052209;28;20602;-77
2022/11/07 14:18:22;;;;;;;9.70;7.73;;;;;;;;;;5052366;28;20226;-77
2022/11/07 14:20:51;;;;;;;11.53;6.00;;;;;;;;;;5052002;28;20208;-77
2022/11/07 14:23:22;;;;;;;12.23;7.63;;;;;;;;;;5052064;28;20616;-77
2022/11/07 14:25:57;;;;;;;18.23;6.97;;;;;;;;;;5051880;28;20215;-76
2022/11/07 14:28:24;;;;;;;14.17;7.47;;;;;;;;;;5051363;28;20650;-77
2022/11/07 14:30:52;;;;;;;10.67;7.13;;;;;;;;;;5045561;28;20235;-77
2022/11/07 14:33:20;;;;;;;9.13;7.20;;;;;;;;;;5051820;28;20301;-77
2022/11/07 14:35:50;;;;;;;11.10;7.17;;;;;;;;;;5051751;28;20217;-77
2022/11/07 14:38:21;;;;;;;14.07;7.93;;;;;;;;;;5051659;28;20230;-77
2022/11/07 14:40:51;;;;;;;16.80;7.37;;;;;;;;;;5051796;28;20205;-77
2022/11/07 14:43:21;;;;;;;7.50;6.37;;;;;;;;;;5051308;28;20203;-78
2022/11/07 14:45:48;;;;;;;19.03;12.97;;;;;;;;;;5051745;28;20645;-77
2022/11/07 14:48:17;;;;;;;11.97;10.23;;;;;;;;;;5052235;28;20199;-77
2022/11/07 14:50:44;;;;;;;10.87;9.13;;;;;;;;;;5050801;28;20211;-77
2022/11/07 14:53:17;;;;;;;13.30;10.23;;;;;;;;;;5051777;28;20245;-77